createdAt,value
2022-09-06T00:01:17.197Z,12.67
2022-09-06T00:03:45.755Z,6.88
2022-09-06T00:06:18.117Z,6.40
2022-09-06T00:08:47.997Z,5.47
2022-09-06T00:11:17.652Z,5.97
2022-09-06T00:13:46.134Z,6.20
2022-09-06T00:16:21.272Z,6.03
2022-09-06T00:18:49.882Z,6.28
2022-09-06T00:21:29.701Z,5.85
2022-09-06T00:23:57.719Z,5.97
2022-09-06T00:26:25.424Z,5.97
2022-09-06T00:28:53.040Z,5.72
2022-09-06T00:31:26.197Z,6.80
2022-09-06T00:33:54.989Z,5.78
2022-09-06T00:36:24.082Z,6.13
2022-09-06T00:38:51.806Z,5.00
2022-09-06T00:41:19.792Z,4.82
2022-09-06T00:43:47.836Z,4.90
2022-09-06T00:46:24.231Z,6.47
2022-09-06T00:49:09.366Z,5.78
2022-09-06T00:51:37.630Z,6.82
2022-09-06T00:54:08.237Z,5.73
2022-09-06T00:56:42.241Z,6.75
2022-09-06T00:59:10.372Z,6.88
2022-09-06T01:01:38.076Z,8.15
2022-09-06T01:04:06.194Z,6.60
2022-09-06T01:07:05.344Z,6.88
2022-09-06T01:10:23.020Z,7.18
2022-09-06T01:13:42.284Z,7.15
2022-09-06T01:19:25.107Z,7.32
2022-09-06T01:22:18.758Z,6.90
2022-09-06T01:25:35.533Z,6.78
2022-09-06T01:28:07.313Z,7.10
2022-09-06T01:30:41.197Z,7.00
2022-09-06T01:33:46.009Z,6.93
2022-09-06T01:36:24.324Z,7.95
2022-09-06T01:38:52.429Z,7.57
2022-09-06T01:41:20.321Z,7.75
2022-09-06T01:43:50.232Z,7.13
2022-09-06T01:46:35.765Z,7.35
2022-09-06T01:49:32.410Z,7.78
2022-09-06T01:52:27.410Z,7.93
2022-09-06T01:55:13.427Z,8.88
2022-09-06T01:58:08.317Z,8.75
2022-09-06T02:00:55.510Z,8.98
2022-09-06T02:03:38.429Z,9.25
2022-09-06T02:06:14.444Z,9.40
2022-09-06T02:08:49.309Z,9.55
2022-09-06T02:11:17.837Z,9.90
2022-09-06T02:13:55.703Z,9.38
2022-09-06T02:16:27.361Z,9.60
2022-09-06T02:19:18.348Z,9.68
2022-09-06T02:21:47.533Z,8.63
2022-09-06T02:24:30.069Z,11.52
2022-09-06T02:26:58.204Z,9.95
2022-09-06T02:29:25.864Z,11.10
2022-09-06T02:32:03.973Z,10.90
2022-09-06T02:34:31.996Z,12.40
2022-09-06T02:37:00.974Z,10.90
2022-09-06T02:39:28.655Z,12.65
2022-09-06T02:41:56.797Z,11.93
2022-09-06T02:44:24.552Z,13.52
2022-09-06T02:46:56.819Z,14.27
2022-09-06T02:49:25.359Z,13.02
2022-09-06T02:51:52.892Z,13.00
2022-09-06T02:54:20.426Z,13.30
2022-09-06T02:56:52.114Z,12.82
2022-09-06T02:59:20.097Z,13.38
2022-09-06T03:01:47.672Z,14.48
2022-09-06T03:04:15.574Z,14.57
2022-09-06T03:06:43.085Z,13.63
2022-09-06T03:09:10.669Z,15.00
2022-09-06T03:11:38.589Z,15.07
2022-09-06T03:14:06.182Z,14.13
2022-09-06T03:16:34.825Z,16.17
2022-09-06T03:19:02.951Z,15.82
2022-09-06T03:21:30.618Z,17.10
2022-09-06T03:23:59.386Z,16.83
2022-09-06T03:26:28.253Z,17.58
2022-09-06T03:28:55.780Z,17.15
2022-09-06T03:31:23.367Z,16.13
2022-09-06T03:33:51.144Z,16.23
2022-09-06T03:36:18.697Z,17.48
2022-09-06T03:39:05.791Z,18.20
2022-09-06T03:41:33.426Z,18.05
2022-09-06T03:44:00.975Z,18.27
2022-09-06T03:46:30.808Z,17.77
2022-09-06T03:48:59.534Z,16.65
2022-09-06T03:51:27.170Z,16.60
2022-09-06T03:53:55.650Z,17.25
2022-09-06T03:56:23.202Z,16.63
2022-09-06T03:58:50.755Z,17.15
2022-09-06T04:01:18.649Z,17.73
2022-09-06T04:03:46.507Z,16.33
2022-09-06T04:06:14.137Z,16.58
2022-09-06T04:08:41.908Z,16.00
2022-09-06T04:11:09.667Z,15.88
2022-09-06T04:13:38.327Z,16.48
2022-09-06T04:16:06.765Z,16.65
2022-09-06T04:18:34.467Z,16.73
2022-09-06T04:21:02.867Z,17.70
2022-09-06T04:23:31.259Z,16.42
2022-09-06T04:26:00.049Z,16.67
2022-09-06T04:28:28.005Z,16.65
2022-09-06T04:31:04.046Z,16.48
2022-09-06T04:33:34.401Z,16.45
2022-09-06T04:36:05.654Z,15.85
2022-09-06T04:38:42.140Z,16.10
2022-09-06T04:41:14.705Z,15.98
2022-09-06T04:43:43.630Z,16.38
2022-09-06T04:46:30.074Z,16.13
2022-09-06T04:48:58.340Z,14.85
2022-09-06T04:51:26.509Z,14.32
2022-09-06T04:53:54.577Z,13.02
2022-09-06T04:56:25.861Z,14.32
2022-09-06T04:58:55.481Z,13.18
2022-09-06T05:01:23.309Z,13.32
2022-09-06T05:03:53.940Z,15.75
2022-09-06T05:06:25.780Z,19.40
2022-09-06T05:08:53.445Z,19.75
2022-09-06T05:11:21.136Z,19.45
2022-09-06T05:13:50.316Z,20.25
2022-09-06T05:16:20.558Z,20.52
2022-09-06T05:18:48.388Z,19.23
2022-09-06T05:21:16.919Z,20.55
2022-09-06T05:23:45.026Z,21.10
2022-09-06T05:26:12.626Z,19.02
2022-09-06T05:28:40.515Z,21.45
2022-09-06T05:31:22.626Z,19.90
2022-09-06T05:33:52.195Z,20.25
2022-09-06T05:38:47.615Z,24.67
2022-09-06T05:41:15.441Z,20.13
2022-09-06T05:43:43.017Z,18.95
2022-09-06T05:46:11.484Z,19.85
2022-09-06T05:48:39.624Z,19.48
2022-09-06T05:51:13.150Z,19.80
2022-09-06T05:53:43.907Z,20.38
2022-09-06T05:56:13.917Z,20.00
2022-09-06T05:58:41.785Z,20.65
2022-09-06T06:01:23.316Z,20.85
2022-09-06T06:04:03.047Z,20.77
2022-09-06T06:06:33.629Z,21.80
2022-09-06T06:09:01.916Z,21.10
2022-09-06T06:11:31.075Z,21.63
2022-09-06T06:16:26.943Z,21.20
2022-09-06T06:18:54.989Z,21.13
2022-09-06T06:21:32.109Z,21.73
2022-09-06T06:24:02.977Z,20.70
2022-09-06T06:26:35.555Z,20.52
2022-09-06T06:29:05.791Z,22.13
2022-09-06T06:31:34.404Z,22.67
2022-09-06T06:34:04.048Z,22.33
2022-09-06T06:36:35.345Z,22.95
2022-09-06T06:39:07.157Z,23.70
2022-09-06T06:41:34.999Z,23.10
2022-09-06T06:44:05.227Z,22.10
2022-09-06T06:46:37.498Z,24.02
2022-09-06T06:49:05.706Z,23.35
2022-09-06T06:51:39.321Z,21.83
2022-09-06T06:54:07.238Z,21.90
2022-09-06T06:56:44.867Z,23.10
2022-09-06T06:59:13.896Z,22.25
2022-09-06T07:01:41.646Z,22.77
2022-09-06T07:04:10.590Z,22.20
2022-09-06T07:12:28.521Z,21.70
2022-09-06T07:14:56.013Z,21.48
2022-09-06T07:17:23.741Z,22.80
2022-09-06T07:22:40.319Z,20.98
2022-09-06T07:25:14.389Z,20.27
2022-09-06T07:30:20.149Z,21.13
2022-09-06T07:35:16.091Z,20.38
2022-09-06T07:37:43.841Z,21.20
2022-09-06T07:40:11.859Z,21.92
2022-09-06T07:42:39.686Z,20.20
2022-09-06T07:45:08.411Z,18.33
2022-09-06T07:53:15.578Z,17.95
2022-09-06T07:55:45.500Z,19.33
2022-09-06T07:58:13.059Z,17.98
2022-09-06T08:00:41.456Z,18.52
2022-09-06T08:03:10.357Z,16.50
2022-09-06T08:11:14.734Z,14.30
2022-09-06T08:13:42.932Z,13.57
2022-09-06T08:16:12.554Z,12.70
2022-09-06T08:18:40.234Z,9.98
2022-09-06T08:21:16.315Z,9.27
2022-09-06T08:24:06.145Z,8.73
2022-09-06T08:26:40.523Z,8.27
2022-09-06T08:29:10.116Z,8.55
2022-09-06T08:31:42.571Z,8.77
2022-09-06T08:34:12.818Z,8.50
2022-09-06T08:36:41.757Z,7.53
2022-09-06T08:39:10.543Z,7.75
2022-09-06T08:42:03.716Z,7.00
2022-09-06T08:44:56.406Z,7.05
2022-09-06T08:47:25.063Z,7.32
2022-09-06T08:50:02.707Z,6.80
2022-09-06T08:53:17.326Z,6.95
2022-09-06T08:56:13.326Z,6.40
2022-09-06T08:59:13.600Z,6.25
2022-09-06T09:02:03.431Z,5.82
2022-09-06T09:04:32.333Z,5.88
2022-09-06T09:07:29.428Z,5.55
2022-09-06T09:09:59.554Z,6.22
2022-09-06T09:12:31.471Z,5.63
2022-09-06T09:15:09.051Z,5.35
2022-09-06T09:17:37.620Z,5.15
2022-09-06T09:20:08.410Z,5.07
2022-09-06T09:22:36.350Z,4.35
2022-09-06T09:25:06.521Z,3.35
2022-09-06T09:27:34.527Z,3.95
2022-09-06T09:32:55.541Z,3.33
2022-09-06T09:35:42.269Z,3.47
2022-09-06T09:38:21.391Z,3.60
2022-09-06T09:43:40.037Z,3.22
2022-09-06T09:46:23.547Z,3.42
2022-09-06T09:49:22.608Z,2.58
2022-09-06T09:52:13.966Z,3.25
2022-09-06T09:54:46.726Z,2.58
2022-09-06T09:57:18.995Z,2.85
2022-09-06T10:00:01.132Z,2.08
2022-09-06T10:02:41.549Z,2.80
2022-09-06T10:05:12.900Z,2.13
2022-09-06T10:07:59.482Z,2.85
2022-09-06T10:10:34.559Z,2.92
2022-09-06T10:13:29.659Z,4.35
2022-09-06T10:16:00.652Z,3.28
2022-09-06T10:18:44.540Z,2.90
2022-09-06T10:21:19.831Z,3.92
2022-09-06T10:27:01.144Z,4.07
2022-09-06T10:29:56.939Z,3.50
2022-09-06T10:32:55.671Z,3.50
2022-09-06T10:35:35.318Z,3.40
2022-09-06T10:38:36.859Z,3.65
2022-09-06T10:41:33.257Z,4.15
2022-09-06T10:44:50.429Z,3.50
2022-09-06T10:47:19.279Z,3.38
2022-09-06T10:49:57.936Z,3.83
2022-09-06T10:52:42.036Z,3.67
2022-09-06T10:55:16.483Z,3.15
2022-09-06T11:00:47.467Z,3.53
2022-09-06T11:03:56.708Z,4.80
2022-09-06T11:06:35.636Z,4.50
2022-09-06T11:09:25.696Z,4.32
2022-09-06T11:12:48.792Z,3.63
2022-09-06T11:15:18.354Z,3.50
2022-09-06T11:18:15.354Z,4.38
2022-09-06T11:20:57.432Z,4.20
2022-09-06T11:23:28.142Z,3.30
2022-09-06T11:26:34.435Z,3.70
2022-09-06T11:29:26.732Z,3.78
2022-09-06T11:32:19.554Z,4.05
2022-09-06T11:34:59.211Z,3.90
2022-09-06T11:37:34.862Z,3.90
2022-09-06T11:40:27.637Z,4.22
2022-09-06T11:42:56.004Z,3.90
2022-09-06T11:45:50.349Z,3.92
2022-09-06T11:48:23.780Z,3.75
2022-09-06T11:50:54.572Z,4.45
2022-09-06T11:53:29.153Z,4.07
2022-09-06T11:56:03.252Z,3.78
2022-09-06T11:58:53.977Z,3.97
2022-09-06T12:01:21.615Z,4.18
2022-09-06T12:04:05.917Z,4.30
2022-09-06T12:06:43.985Z,3.25
2022-09-06T12:09:28.642Z,3.20
2022-09-06T12:11:57.762Z,3.75
2022-09-06T12:17:08.835Z,3.30
2022-09-06T12:22:32.802Z,3.22
2022-09-06T12:25:36.012Z,3.03
2022-09-06T12:28:07.132Z,2.70
2022-09-06T12:30:48.010Z,2.78
2022-09-06T12:33:28.773Z,3.15
2022-09-06T12:36:31.226Z,2.80
2022-09-06T12:39:09.361Z,2.88
2022-09-06T12:42:00.515Z,4.23
2022-09-06T12:44:45.472Z,3.05
2022-09-06T12:47:34.416Z,3.22
2022-09-06T12:50:24.129Z,4.07
2022-09-06T12:52:51.632Z,3.55
2022-09-06T12:55:27.169Z,2.65
2022-09-06T12:57:58.131Z,3.30
2022-09-06T13:00:42.645Z,2.60
2022-09-06T13:03:37.478Z,2.45
2022-09-06T13:06:07.092Z,2.53
2022-09-06T13:08:47.934Z,2.90
2022-09-06T13:11:24.386Z,3.42
2022-09-06T13:13:54.708Z,3.58
2022-09-06T13:16:35.513Z,3.15
2022-09-06T13:19:35.448Z,3.13
2022-09-06T13:22:10.957Z,3.22
2022-09-06T13:24:47.797Z,2.60
2022-09-06T13:27:36.784Z,2.42
2022-09-06T13:30:10.208Z,3.25
2022-09-06T13:32:47.636Z,2.47
2022-09-06T13:35:24.801Z,3.00
2022-09-06T13:37:52.712Z,2.63
2022-09-06T13:41:06.954Z,2.30
2022-09-06T13:43:33.699Z,2.65
2022-09-06T13:46:07.461Z,3.17
2022-09-06T13:48:36.011Z,3.00
2022-09-06T13:51:06.794Z,2.63
2022-09-06T13:53:35.531Z,2.55
2022-09-06T13:56:03.931Z,1.80
2022-09-06T13:58:31.513Z,2.42
2022-09-06T14:00:59.238Z,3.25
2022-09-06T14:03:31.252Z,2.50
2022-09-06T14:06:02.915Z,2.10
2022-09-06T14:08:55.792Z,2.63
2022-09-06T14:11:19.881Z,3.28
2022-09-06T14:13:48.016Z,2.23
2022-09-06T14:16:15.675Z,2.07
2022-09-06T14:18:43.699Z,2.30
2022-09-06T14:21:11.579Z,2.47
2022-09-06T14:23:39.399Z,2.67
2022-09-06T14:26:06.929Z,3.00
2022-09-06T14:28:34.861Z,2.83
2022-09-06T14:31:18.981Z,2.78
2022-09-06T14:33:47.216Z,2.95
2022-09-06T14:36:19.125Z,2.87
2022-09-06T14:38:48.347Z,4.00
2022-09-06T14:41:17.847Z,3.92
2022-09-06T14:43:51.065Z,3.33
2022-09-06T14:46:22.108Z,4.20
2022-09-06T14:48:56.896Z,4.38
2022-09-06T14:51:25.007Z,4.90
2022-09-06T14:54:20.186Z,3.50
2022-09-06T14:56:48.496Z,3.35
2022-09-06T14:59:16.185Z,2.92
2022-09-06T15:01:43.905Z,2.70
2022-09-06T15:04:12.354Z,3.03
2022-09-06T15:06:44.884Z,3.67
2022-09-06T15:09:16.486Z,3.35
2022-09-06T15:11:48.552Z,3.13
2022-09-06T15:14:27.435Z,2.95
2022-09-06T15:16:59.519Z,3.22
2022-09-06T15:19:29.770Z,3.17
2022-09-06T15:21:57.945Z,3.70
2022-09-06T15:24:26.080Z,3.05
2022-09-06T15:26:54.382Z,3.38
2022-09-06T15:29:22.633Z,3.30
2022-09-06T15:31:50.970Z,3.25
2022-09-06T15:34:26.426Z,2.90
2022-09-06T15:36:54.663Z,3.25
2022-09-06T15:39:22.770Z,3.75
2022-09-06T15:41:51.780Z,3.45
2022-09-06T15:44:21.684Z,3.08
2022-09-06T15:46:59.882Z,3.17
2022-09-06T15:49:32.902Z,3.30
2022-09-06T15:52:02.838Z,3.40
2022-09-06T15:54:49.203Z,3.70
2022-09-06T15:57:17.936Z,3.78
2022-09-06T16:02:14.606Z,4.60
2022-09-06T16:04:42.456Z,10.15
2022-09-06T16:07:10.131Z,8.20
2022-09-06T16:09:37.878Z,6.90
2022-09-06T16:12:06.445Z,5.30
2022-09-06T16:14:34.948Z,5.60
2022-09-06T16:17:02.647Z,5.25
2022-09-06T16:19:30.538Z,10.02
2022-09-06T16:21:59.040Z,8.45
2022-09-06T16:24:27.028Z,8.57
2022-09-06T16:27:00.147Z,5.20
2022-09-06T16:29:27.727Z,5.70
2022-09-06T16:31:59.856Z,5.05
2022-09-06T16:34:27.915Z,5.43
2022-09-06T16:36:57.021Z,5.45
2022-09-06T16:39:25.303Z,5.63
2022-09-06T16:41:53.261Z,5.07
2022-09-06T16:44:20.925Z,4.50
2022-09-06T16:46:50.368Z,4.88
2022-09-06T16:49:19.417Z,4.93
2022-09-06T16:51:48.702Z,4.68
2022-09-06T16:54:18.243Z,6.63
2022-09-06T16:56:46.300Z,6.93
2022-09-06T16:59:17.429Z,5.65
2022-09-06T17:01:46.187Z,5.68
2022-09-06T17:04:15.336Z,5.85
2022-09-06T17:06:44.668Z,6.55
2022-09-06T17:09:16.269Z,6.60
2022-09-06T17:11:44.151Z,7.30
2022-09-06T17:14:11.935Z,6.72
2022-09-06T17:16:58.635Z,6.05
2022-09-06T17:19:26.755Z,7.90
2022-09-06T17:21:54.483Z,8.15
2022-09-06T17:24:22.671Z,8.07
2022-09-06T17:26:50.484Z,9.18
2022-09-06T17:29:18.153Z,9.65
2022-09-06T17:31:45.805Z,8.75
2022-09-06T17:34:13.737Z,8.85
2022-09-06T17:36:41.451Z,9.98
2022-09-06T17:39:14.347Z,9.32
2022-09-06T17:41:47.914Z,9.90
2022-09-06T17:44:19.777Z,7.97
2022-09-06T17:47:08.954Z,12.52
2022-09-06T17:49:36.825Z,10.38
2022-09-06T17:52:05.049Z,8.88
2022-09-06T17:54:32.727Z,8.15
2022-09-06T17:57:00.276Z,7.57
2022-09-06T17:59:32.793Z,8.80
2022-09-06T18:02:02.478Z,8.63
2022-09-06T18:04:30.489Z,11.68
2022-09-06T18:06:58.481Z,9.45
2022-09-06T18:09:26.034Z,10.77
2022-09-06T18:11:53.884Z,9.07
2022-09-06T18:14:21.515Z,8.32
2022-09-06T18:16:51.875Z,8.10
2022-09-06T18:19:21.108Z,8.27
2022-09-06T18:21:49.064Z,8.52
2022-09-06T18:24:17.080Z,8.50
2022-09-06T18:26:44.991Z,8.20
2022-09-06T18:29:15.031Z,8.23
2022-09-06T18:31:43.613Z,7.88
2022-09-06T18:34:12.460Z,8.45
2022-09-06T18:36:40.598Z,9.35
2022-09-06T18:39:08.354Z,8.67
2022-09-06T18:41:54.841Z,7.82
2022-09-06T18:44:22.561Z,7.75
2022-09-06T18:46:50.422Z,7.55
2022-09-06T18:49:18.612Z,8.00
2022-09-06T18:51:46.507Z,8.30
2022-09-06T18:54:14.908Z,7.43
2022-09-06T18:56:44.823Z,7.20
2022-09-06T18:59:13.908Z,6.97
2022-09-06T19:01:43.124Z,7.30
2022-09-06T19:04:12.151Z,7.88
2022-09-06T19:06:43.120Z,7.32
2022-09-06T19:09:15.976Z,7.72
2022-09-06T19:11:47.041Z,7.93
2022-09-06T19:14:15.346Z,7.80
2022-09-06T19:16:45.209Z,7.15
2022-09-06T19:19:13.488Z,6.82
2022-09-06T19:21:42.526Z,7.28
2022-09-06T19:26:43.574Z,6.68
2022-09-06T19:29:17.800Z,7.38
2022-09-06T19:31:47.415Z,6.70
2022-09-06T19:34:16.204Z,8.05
2022-09-06T19:36:45.037Z,6.70
2022-09-06T19:39:16.369Z,6.35
2022-09-06T19:41:46.926Z,5.47
2022-09-06T19:44:16.806Z,6.32
2022-09-06T19:46:47.165Z,5.80
2022-09-06T19:49:17.789Z,6.32
2022-09-06T19:51:48.778Z,5.15
2022-09-06T19:54:17.439Z,5.45
2022-09-06T19:56:45.870Z,4.80
2022-09-06T19:59:15.890Z,5.85
2022-09-06T20:01:46.205Z,5.93
2022-09-06T20:04:15.644Z,5.88
2022-09-06T20:06:43.643Z,5.65
2022-09-06T20:09:12.076Z,6.20
2022-09-06T20:11:41.427Z,6.03
2022-09-06T20:14:11.594Z,6.00
2022-09-06T20:16:42.204Z,5.85
2022-09-06T20:19:12.556Z,6.53
2022-09-06T20:21:40.533Z,6.30
2022-09-06T20:24:08.499Z,5.82
2022-09-06T20:26:36.627Z,6.10
2022-09-06T20:29:05.258Z,5.90
2022-09-06T20:31:35.429Z,6.45
2022-09-06T20:34:07.485Z,5.47
2022-09-06T20:36:35.682Z,5.63
2022-09-06T20:39:04.472Z,5.50
2022-09-06T20:44:00.838Z,5.25
2022-09-06T20:46:32.312Z,6.00
2022-09-06T20:49:04.581Z,5.88
2022-09-06T20:51:36.314Z,5.80
2022-09-06T20:54:05.924Z,5.50
2022-09-06T20:56:42.159Z,6.07
2022-09-06T20:59:12.911Z,5.88
2022-09-06T21:01:43.944Z,5.80
2022-09-06T21:04:14.456Z,5.88
2022-09-06T21:06:42.397Z,5.90
2022-09-06T21:09:14.131Z,5.97
2022-09-06T21:11:43.355Z,6.22
2022-09-06T21:14:13.467Z,5.97
2022-09-06T21:16:43.943Z,6.18
2022-09-06T21:19:14.232Z,6.25
2022-09-06T21:21:43.998Z,5.88
2022-09-06T21:24:12.454Z,6.13
2022-09-06T21:26:44.999Z,5.60
2022-09-06T21:29:25.264Z,6.47
2022-09-06T21:31:59.597Z,5.57
2022-09-06T21:34:27.227Z,5.30
2022-09-06T21:37:00.926Z,5.53
2022-09-06T21:39:34.138Z,6.20
2022-09-06T21:42:07.533Z,5.45
2022-09-06T21:44:41.059Z,6.00
2022-09-06T21:47:17.534Z,5.60
2022-09-06T21:49:47.768Z,5.88
2022-09-06T21:52:17.391Z,5.93
2022-09-06T21:54:45.801Z,5.57
2022-09-06T21:57:14.082Z,5.68
2022-09-06T21:59:42.365Z,5.72
2022-09-06T22:02:09.972Z,6.47
2022-09-06T22:04:37.947Z,5.82
2022-09-06T22:07:05.500Z,5.85
2022-09-06T22:09:33.102Z,6.32
2022-09-06T22:12:00.846Z,5.55
2022-09-06T22:14:28.950Z,5.47
2022-09-06T22:16:57.005Z,5.75
2022-09-06T22:19:24.952Z,5.85
2022-09-06T22:21:54.446Z,6.15
2022-09-06T22:24:21.989Z,5.40
2022-09-06T22:26:49.754Z,5.03
2022-09-06T22:29:17.332Z,5.63
2022-09-06T22:31:44.997Z,5.82
2022-09-06T22:34:13.056Z,4.90
2022-09-06T22:36:40.631Z,6.00
2022-09-06T22:39:09.626Z,5.65
2022-09-06T22:41:40.679Z,5.53
2022-09-06T22:44:08.367Z,4.65
2022-09-06T22:46:37.027Z,5.30
2022-09-06T22:49:05.483Z,5.45
2022-09-06T22:51:34.384Z,6.57
2022-09-06T22:54:02.120Z,5.70
2022-09-06T22:56:29.951Z,5.40
2022-09-06T22:59:00.320Z,5.45
2022-09-06T23:01:28.686Z,5.25
2022-09-06T23:03:56.592Z,5.10
2022-09-06T23:06:24.525Z,4.72
2022-09-06T23:08:52.127Z,5.20
2022-09-06T23:11:20.184Z,4.75
2022-09-06T23:13:47.903Z,5.20
2022-09-06T23:16:19.534Z,6.22
2022-09-06T23:18:48.371Z,10.00
2022-09-06T23:21:22.332Z,10.23
2022-09-06T23:23:52.681Z,7.88
2022-09-06T23:26:23.763Z,6.43
2022-09-06T23:28:56.543Z,6.18
2022-09-06T23:31:27.138Z,6.22
2022-09-06T23:33:58.080Z,5.10
2022-09-06T23:36:26.641Z,5.60
2022-09-06T23:38:54.297Z,5.65
2022-09-06T23:41:22.264Z,5.32
2022-09-06T23:43:50.040Z,5.68
2022-09-06T23:46:18.279Z,5.25
2022-09-06T23:48:46.482Z,5.30
2022-09-06T23:51:14.185Z,5.20
2022-09-06T23:53:42.354Z,4.57
2022-09-06T23:56:10.663Z,5.15
2022-09-06T23:58:39.382Z,6.03
